createdAt,value
2017-11-27T00:01:07.566Z,1.80
2017-11-27T00:03:35.639Z,1.80
2017-11-27T00:06:03.725Z,1.80
2017-11-27T00:08:31.800Z,1.80
2017-11-27T00:11:00.295Z,1.80
2017-11-27T00:13:28.376Z,1.80
2017-11-27T00:15:56.484Z,1.80
2017-11-27T00:18:24.573Z,1.80
2017-11-27T00:20:53.417Z,1.80
2017-11-27T00:23:21.504Z,1.80
2017-11-27T00:25:49.588Z,1.90
2017-11-27T00:28:17.669Z,1.80
2017-11-27T00:30:45.750Z,1.90
2017-11-27T00:33:14.589Z,1.80
2017-11-27T00:35:42.675Z,1.80
2017-11-27T00:38:10.771Z,1.80
2017-11-27T00:40:38.858Z,1.80
2017-11-27T00:43:07.706Z,1.80
2017-11-27T00:45:35.811Z,1.80
2017-11-27T00:48:03.902Z,1.90
2017-11-27T00:50:31.983Z,1.90
2017-11-27T00:53:00.083Z,1.90
2017-11-27T00:55:28.170Z,1.90
2017-11-27T00:57:56.256Z,1.90
2017-11-27T01:00:25.165Z,2.00
2017-11-27T01:02:53.256Z,2.00
2017-11-27T01:05:21.340Z,2.00
2017-11-27T01:07:49.420Z,2.00
2017-11-27T01:10:17.492Z,1.90
2017-11-27T01:12:45.582Z,1.90
2017-11-27T01:15:13.643Z,1.90
2017-11-27T01:17:41.732Z,1.90
2017-11-27T01:20:09.815Z,1.90
2017-11-27T01:22:37.945Z,1.90
2017-11-27T01:25:06.802Z,1.80
2017-11-27T01:27:34.889Z,1.80
2017-11-27T01:30:03.036Z,1.90
2017-11-27T01:32:31.109Z,1.90
2017-11-27T01:34:59.185Z,1.90
2017-11-27T01:37:27.278Z,1.90
2017-11-27T01:39:55.352Z,1.90
2017-11-27T01:42:23.448Z,2.00
2017-11-27T01:44:51.564Z,2.00
2017-11-27T01:47:19.658Z,1.90
2017-11-27T01:49:47.732Z,1.90
2017-11-27T01:52:16.578Z,1.90
2017-11-27T01:54:44.660Z,1.90
2017-11-27T01:57:12.734Z,1.90
2017-11-27T01:59:40.901Z,1.90
2017-11-27T02:02:08.971Z,1.90
2017-11-27T02:04:37.078Z,1.90
2017-11-27T02:07:05.162Z,2.00
2017-11-27T02:09:33.245Z,1.90
2017-11-27T02:12:01.316Z,1.90
2017-11-27T02:14:29.424Z,1.90
2017-11-27T02:16:57.500Z,2.00
2017-11-27T02:19:25.583Z,1.90
2017-11-27T02:21:58.149Z,2.00
2017-11-27T02:24:26.443Z,1.90
2017-11-27T02:26:54.535Z,1.90
2017-11-27T02:29:22.619Z,2.00
2017-11-27T02:31:50.715Z,1.90
2017-11-27T02:34:18.786Z,2.00
2017-11-27T02:36:46.860Z,2.00
2017-11-27T02:39:14.940Z,2.00
2017-11-27T02:41:43.021Z,2.00
2017-11-27T02:44:11.101Z,1.90
2017-11-27T02:46:39.188Z,2.00
2017-11-27T02:49:07.263Z,1.90
2017-11-27T02:51:35.339Z,2.00
2017-11-27T02:54:03.438Z,2.00
2017-11-27T02:56:31.504Z,2.00
2017-11-27T02:59:00.353Z,2.00
2017-11-27T03:01:29.185Z,1.90
2017-11-27T03:03:57.272Z,1.90
2017-11-27T03:06:25.461Z,1.90
2017-11-27T03:08:53.543Z,2.00
2017-11-27T03:11:21.628Z,2.00
2017-11-27T03:13:49.707Z,2.00
2017-11-27T03:16:17.782Z,2.00
2017-11-27T03:18:45.867Z,2.00
2017-11-27T03:21:13.947Z,2.10
2017-11-27T03:23:42.033Z,2.10
2017-11-27T03:26:10.889Z,2.10
2017-11-27T03:28:38.970Z,2.10
2017-11-27T03:31:07.047Z,2.10
2017-11-27T03:33:35.132Z,2.10
2017-11-27T03:36:03.201Z,2.10
2017-11-27T03:38:31.322Z,2.00
2017-11-27T03:40:59.396Z,2.10
2017-11-27T03:43:27.468Z,2.00
2017-11-27T03:45:55.556Z,2.00
2017-11-27T03:48:23.634Z,2.00
2017-11-27T03:50:51.794Z,2.00
2017-11-27T03:53:19.865Z,2.00
2017-11-27T03:55:47.946Z,2.00
2017-11-27T03:58:16.788Z,2.00
2017-11-27T04:00:44.875Z,2.00
2017-11-27T04:03:12.972Z,2.00
2017-11-27T04:05:41.052Z,2.00
2017-11-27T04:08:09.905Z,2.00
2017-11-27T04:10:37.997Z,2.00
2017-11-27T04:13:06.084Z,2.10
2017-11-27T04:15:34.159Z,2.10
2017-11-27T04:18:02.234Z,2.00
2017-11-27T04:20:30.424Z,2.10
2017-11-27T04:22:58.500Z,2.10
2017-11-27T04:25:26.587Z,2.10
2017-11-27T04:27:54.665Z,2.00
2017-11-27T04:30:22.743Z,2.00
2017-11-27T04:32:50.832Z,2.00
2017-11-27T04:35:18.903Z,2.00
2017-11-27T04:37:47.875Z,2.00
2017-11-27T04:40:15.933Z,2.00
2017-11-27T04:42:44.005Z,2.00
2017-11-27T04:45:12.844Z,2.00
2017-11-27T04:47:40.915Z,2.00
2017-11-27T04:50:09.030Z,2.00
2017-11-27T04:52:37.113Z,2.00
2017-11-27T04:55:05.308Z,2.00
2017-11-27T04:57:33.392Z,2.00
2017-11-27T05:00:02.232Z,2.00
2017-11-27T05:02:30.351Z,2.00
2017-11-27T05:04:58.417Z,2.00
2017-11-27T05:07:27.263Z,1.90
2017-11-27T05:09:55.365Z,1.80
2017-11-27T05:12:23.423Z,1.90
2017-11-27T05:14:51.519Z,1.90
2017-11-27T05:17:19.770Z,1.90
2017-11-27T05:19:47.849Z,1.90
2017-11-27T05:22:15.932Z,1.90
2017-11-27T05:24:44.783Z,1.80
2017-11-27T05:27:12.871Z,1.80
2017-11-27T05:29:40.948Z,1.80
2017-11-27T05:32:09.029Z,1.90
2017-11-27T05:34:37.889Z,1.80
2017-11-27T05:37:05.974Z,1.80
2017-11-27T05:39:34.053Z,1.80
2017-11-27T05:42:02.140Z,1.80
2017-11-27T05:44:31.000Z,1.80
2017-11-27T05:46:59.076Z,1.70
2017-11-27T05:49:27.145Z,1.80
2017-11-27T05:51:55.219Z,1.80
2017-11-27T05:54:23.301Z,1.80
2017-11-27T05:56:52.140Z,1.80
2017-11-27T05:59:20.212Z,1.80
2017-11-27T06:01:48.293Z,1.80
2017-11-27T06:04:16.369Z,1.70
2017-11-27T06:06:44.456Z,1.70
2017-11-27T06:09:13.301Z,1.70
2017-11-27T06:11:41.394Z,1.70
2017-11-27T06:14:09.465Z,1.60
2017-11-27T06:16:37.557Z,1.60
2017-11-27T06:19:05.637Z,1.50
2017-11-27T06:21:33.721Z,1.50
2017-11-27T06:24:01.788Z,1.40
2017-11-27T06:26:29.873Z,1.40
2017-11-27T06:28:57.940Z,1.30
2017-11-27T06:31:26.025Z,1.30
2017-11-27T06:33:54.100Z,1.30
2017-11-27T06:36:22.384Z,1.30
2017-11-27T06:38:50.436Z,1.30
2017-11-27T06:41:18.505Z,1.40
2017-11-27T06:43:46.580Z,1.40
2017-11-27T06:46:14.653Z,1.30
2017-11-27T06:48:42.737Z,1.30
2017-11-27T06:51:10.871Z,1.30
2017-11-27T06:53:38.947Z,1.20
2017-11-27T06:56:07.015Z,1.20
2017-11-27T06:58:35.093Z,1.20
2017-11-27T07:01:03.162Z,1.20
2017-11-27T07:03:31.249Z,1.20
2017-11-27T07:05:59.325Z,1.20
2017-11-27T07:08:27.391Z,1.30
2017-11-27T07:10:55.463Z,1.30
2017-11-27T07:13:23.536Z,1.20
2017-11-27T07:15:51.636Z,1.30
2017-11-27T07:18:19.728Z,1.30
2017-11-27T07:20:47.819Z,1.30
2017-11-27T07:23:15.899Z,1.40
2017-11-27T07:25:43.965Z,1.40
2017-11-27T07:28:12.037Z,1.40
2017-11-27T07:30:40.114Z,1.40
2017-11-27T07:33:08.185Z,1.40
2017-11-27T07:35:36.263Z,1.40
2017-11-27T07:38:10.051Z,1.50
2017-11-27T07:40:38.140Z,1.80
2017-11-27T07:43:06.213Z,2.20
2017-11-27T07:45:34.304Z,2.80
2017-11-27T07:48:02.832Z,3.50
2017-11-27T07:50:30.928Z,3.80
2017-11-27T07:52:59.036Z,3.90
2017-11-27T07:55:28.618Z,5.00
2017-11-27T07:57:56.818Z,4.90
2017-11-27T08:00:24.885Z,5.50
2017-11-27T08:02:54.589Z,6.20
2017-11-27T08:05:22.736Z,6.20
2017-11-27T08:07:50.827Z,6.20
2017-11-27T08:10:18.908Z,6.20
2017-11-27T08:12:47.082Z,4.70
2017-11-27T08:15:15.147Z,3.80
2017-11-27T08:17:43.233Z,3.20
2017-11-27T08:20:11.308Z,3.50
2017-11-27T08:22:40.155Z,3.10
2017-11-27T08:25:08.253Z,3.10
2017-11-27T08:27:36.336Z,3.00
2017-11-27T08:30:04.767Z,2.90
2017-11-27T08:32:32.857Z,2.70
2017-11-27T08:35:00.952Z,2.50
2017-11-27T08:37:29.792Z,2.70
2017-11-27T08:39:57.877Z,2.70
2017-11-27T08:42:25.978Z,2.60
2017-11-27T08:44:54.049Z,2.70
2017-11-27T08:47:22.114Z,2.60
2017-11-27T08:49:50.192Z,2.70
2017-11-27T08:52:19.036Z,2.60
2017-11-27T08:54:47.161Z,2.60
2017-11-27T08:57:16.000Z,2.40
2017-11-27T08:59:44.081Z,2.40
2017-11-27T09:02:12.155Z,2.50
2017-11-27T09:04:40.242Z,2.50
2017-11-27T09:07:08.318Z,2.50
2017-11-27T09:09:37.157Z,2.90
2017-11-27T09:12:05.237Z,2.90
2017-11-27T09:14:33.333Z,3.00
2017-11-27T09:17:01.405Z,2.90
2017-11-27T09:19:29.474Z,2.90
2017-11-27T09:21:57.565Z,2.80
2017-11-27T09:24:25.641Z,2.60
2017-11-27T09:26:53.727Z,2.90
2017-11-27T09:29:21.799Z,3.10
2017-11-27T09:31:49.979Z,3.10
2017-11-27T09:34:18.044Z,3.10
2017-11-27T09:36:46.136Z,3.10
2017-11-27T09:39:14.208Z,2.80
2017-11-27T09:41:42.297Z,2.70
2017-11-27T09:44:10.376Z,2.70
2017-11-27T09:46:38.461Z,2.70
2017-11-27T09:49:07.307Z,3.10
2017-11-27T09:51:35.393Z,3.00
2017-11-27T09:54:04.972Z,3.20
2017-11-27T09:56:33.053Z,3.10
2017-11-27T09:59:01.140Z,3.20
2017-11-27T10:01:29.218Z,3.50
2017-11-27T10:03:57.296Z,3.70
2017-11-27T10:06:25.374Z,4.10
2017-11-27T10:08:53.444Z,4.30
2017-11-27T10:11:22.281Z,6.20
2017-11-27T10:13:50.354Z,6.10
2017-11-27T10:16:18.430Z,6.40
2017-11-27T10:18:46.505Z,6.30
2017-11-27T10:21:15.520Z,7.60
2017-11-27T10:23:43.598Z,7.40
2017-11-27T10:26:13.165Z,8.20
2017-11-27T10:28:41.248Z,8.20
2017-11-27T10:31:09.319Z,6.90
2017-11-27T10:33:37.500Z,7.10
2017-11-27T10:36:05.576Z,8.10
2017-11-27T10:38:33.647Z,6.80
2017-11-27T10:41:01.726Z,7.40
2017-11-27T10:43:29.876Z,6.90
2017-11-27T10:45:57.948Z,7.10
2017-11-27T10:48:26.023Z,7.80
2017-11-27T10:50:54.108Z,6.40
2017-11-27T10:53:22.183Z,6.30
2017-11-27T10:55:51.075Z,5.40
2017-11-27T10:58:19.120Z,5.40
2017-11-27T11:00:52.855Z,5.10
2017-11-27T11:03:21.687Z,4.50
2017-11-27T11:05:49.762Z,4.50
2017-11-27T11:08:17.839Z,4.60
2017-11-27T11:10:45.916Z,4.60
2017-11-27T11:13:13.992Z,4.80
2017-11-27T11:15:42.077Z,4.40
2017-11-27T11:18:10.147Z,4.20
2017-11-27T11:20:38.228Z,4.20
2017-11-27T11:23:06.299Z,4.00
2017-11-27T11:25:34.383Z,4.10
2017-11-27T11:28:04.065Z,4.10
2017-11-27T11:30:32.107Z,4.10
2017-11-27T11:33:00.196Z,4.10
2017-11-27T11:35:28.267Z,4.20
2017-11-27T11:37:56.412Z,4.10
2017-11-27T11:40:24.512Z,4.30
2017-11-27T11:42:52.581Z,4.20
2017-11-27T11:45:20.663Z,4.10
2017-11-27T11:47:49.516Z,4.30
2017-11-27T11:50:17.594Z,4.30
2017-11-27T11:52:45.657Z,4.40
2017-11-27T11:55:14.495Z,4.70
2017-11-27T11:57:43.341Z,4.40
2017-11-27T12:00:11.417Z,4.40
2017-11-27T12:02:39.487Z,4.20
2017-11-27T12:05:07.577Z,4.30
2017-11-27T12:07:35.658Z,4.00
2017-11-27T12:10:03.727Z,4.20
2017-11-27T12:12:31.803Z,4.30
2017-11-27T12:14:59.876Z,4.30
2017-11-27T12:17:27.949Z,4.30
2017-11-27T12:19:56.029Z,4.40
2017-11-27T12:22:24.095Z,4.20
2017-11-27T12:24:52.172Z,4.40
2017-11-27T12:27:20.250Z,4.50
2017-11-27T12:29:48.332Z,4.80
2017-11-27T12:32:16.401Z,4.80
2017-11-27T12:34:44.623Z,4.70
2017-11-27T12:37:12.706Z,4.60
2017-11-27T12:39:40.793Z,4.80
2017-11-27T12:42:08.905Z,4.60
2017-11-27T12:44:36.980Z,4.50
2017-11-27T12:47:05.072Z,4.40
2017-11-27T12:49:33.145Z,4.40
2017-11-27T12:52:01.988Z,4.20
2017-11-27T12:54:30.063Z,4.20
2017-11-27T12:56:58.136Z,4.10
2017-11-27T12:59:26.197Z,4.10
2017-11-27T13:01:54.284Z,4.10
2017-11-27T13:04:22.349Z,4.20
2017-11-27T13:06:50.435Z,4.00
2017-11-27T13:09:18.513Z,4.10
2017-11-27T13:11:46.596Z,4.10
2017-11-27T13:14:14.665Z,3.90
2017-11-27T13:16:43.518Z,3.80
2017-11-27T13:19:11.601Z,3.80
2017-11-27T13:21:39.676Z,3.80
2017-11-27T13:24:07.747Z,3.70
2017-11-27T13:26:35.811Z,3.80
2017-11-27T13:29:03.913Z,3.70
2017-11-27T13:31:32.751Z,3.70
2017-11-27T13:34:00.834Z,3.60
2017-11-27T13:36:28.915Z,3.60
2017-11-27T13:38:57.000Z,3.60
2017-11-27T13:41:25.854Z,3.50
2017-11-27T13:43:53.942Z,3.40
2017-11-27T13:46:22.026Z,3.50
2017-11-27T13:48:50.109Z,3.50
2017-11-27T13:51:18.948Z,3.30
2017-11-27T13:53:47.044Z,3.30
2017-11-27T13:56:15.125Z,3.20
2017-11-27T13:58:44.019Z,3.10
2017-11-27T14:01:12.109Z,3.10
2017-11-27T14:03:40.194Z,2.90
2017-11-27T14:06:08.263Z,3.00
2017-11-27T14:08:36.336Z,3.00
2017-11-27T14:11:04.416Z,2.90
2017-11-27T14:13:32.501Z,2.90
2017-11-27T14:16:00.581Z,2.80
2017-11-27T14:18:28.644Z,2.80
2017-11-27T14:20:56.724Z,2.80
2017-11-27T14:23:24.813Z,2.90
2017-11-27T14:25:53.673Z,2.90
2017-11-27T14:28:21.744Z,2.90
2017-11-27T14:30:49.833Z,2.90
2017-11-27T14:33:17.912Z,2.80
2017-11-27T14:35:45.996Z,2.80
2017-11-27T14:38:14.840Z,2.80
2017-11-27T14:40:42.929Z,2.80
2017-11-27T14:43:11.008Z,2.80
2017-11-27T14:45:39.093Z,2.90
2017-11-27T14:48:07.932Z,2.90
2017-11-27T14:50:36.039Z,2.90
2017-11-27T14:53:04.127Z,2.90
2017-11-27T14:55:32.988Z,2.90
2017-11-27T14:58:01.060Z,2.90
2017-11-27T15:00:29.640Z,3.00
2017-11-27T15:02:57.700Z,2.90
2017-11-27T15:05:25.781Z,2.90
2017-11-27T15:07:53.856Z,3.00
2017-11-27T15:10:21.945Z,3.00
2017-11-27T15:12:50.784Z,3.10
2017-11-27T15:15:18.881Z,3.10
2017-11-27T15:17:46.953Z,3.10
2017-11-27T15:20:15.040Z,3.10
2017-11-27T15:22:43.903Z,3.20
2017-11-27T15:25:11.989Z,3.10
2017-11-27T15:27:40.065Z,3.20
2017-11-27T15:30:08.910Z,3.20
2017-11-27T15:32:36.992Z,3.20
2017-11-27T15:35:05.066Z,3.20
2017-11-27T15:37:33.143Z,3.10
2017-11-27T15:40:01.224Z,3.20
2017-11-27T15:42:29.317Z,3.30
2017-11-27T15:44:58.156Z,3.40
2017-11-27T15:47:26.244Z,3.30
2017-11-27T15:49:54.329Z,3.40
2017-11-27T15:52:23.181Z,3.50
2017-11-27T15:54:51.306Z,3.40
2017-11-27T15:57:20.157Z,3.40
2017-11-27T15:59:48.227Z,3.40
2017-11-27T16:02:16.318Z,3.50
2017-11-27T16:04:45.161Z,3.50
2017-11-27T16:07:13.253Z,3.40
2017-11-27T16:09:41.346Z,3.50
2017-11-27T16:12:09.413Z,3.40
2017-11-27T16:14:38.270Z,3.50
2017-11-27T16:17:06.360Z,3.40
2017-11-27T16:19:34.480Z,3.50
2017-11-27T16:22:02.587Z,3.60
2017-11-27T16:24:30.666Z,3.50
2017-11-27T16:26:58.748Z,3.60
2017-11-27T16:29:26.833Z,3.50
2017-11-27T16:31:54.925Z,3.50
2017-11-27T16:34:23.017Z,3.60
2017-11-27T16:36:51.185Z,3.60
2017-11-27T16:39:19.263Z,3.60
2017-11-27T16:41:47.345Z,3.60
2017-11-27T16:44:15.428Z,3.70
2017-11-27T16:46:43.500Z,3.70
2017-11-27T16:49:11.655Z,3.70
2017-11-27T16:51:39.746Z,3.60
2017-11-27T16:54:07.825Z,3.70
2017-11-27T16:56:35.905Z,3.70
2017-11-27T16:59:03.992Z,3.70
2017-11-27T17:01:32.839Z,3.70
2017-11-27T17:04:00.940Z,3.70
2017-11-27T17:06:29.789Z,3.70
2017-11-27T17:08:57.882Z,3.70
2017-11-27T17:11:26.073Z,3.70
2017-11-27T17:13:54.148Z,3.70
2017-11-27T17:16:22.986Z,3.70
2017-11-27T17:19:07.617Z,3.70
2017-11-27T17:21:35.697Z,3.60
2017-11-27T17:24:03.787Z,3.60
2017-11-27T17:26:31.869Z,3.70
2017-11-27T17:28:59.949Z,3.60
2017-11-27T17:31:28.025Z,3.60
2017-11-27T17:33:56.108Z,3.60
2017-11-27T17:36:24.179Z,3.70
2017-11-27T17:38:52.280Z,3.70
2017-11-27T17:41:20.356Z,3.60
2017-11-27T17:43:48.446Z,3.60
2017-11-27T17:46:16.538Z,3.60
2017-11-27T17:48:44.614Z,3.60
2017-11-27T17:51:12.703Z,3.60
2017-11-27T17:53:40.769Z,3.60
2017-11-27T17:56:09.645Z,3.70
2017-11-27T17:58:37.705Z,3.70
2017-11-27T18:01:05.840Z,3.70
2017-11-27T18:03:33.912Z,3.60
2017-11-27T18:06:01.992Z,3.60
2017-11-27T18:08:30.071Z,3.70
2017-11-27T18:10:58.154Z,3.70
2017-11-27T18:13:26.226Z,3.70
2017-11-27T18:15:54.318Z,3.70
2017-11-27T18:18:23.181Z,3.60
2017-11-27T18:20:51.269Z,3.60
2017-11-27T18:23:19.362Z,3.60
2017-11-27T18:25:48.202Z,3.60
2017-11-27T18:28:16.292Z,3.60
2017-11-27T18:30:44.364Z,3.60
2017-11-27T18:33:12.449Z,3.50
2017-11-27T18:35:40.531Z,3.60
2017-11-27T18:38:08.605Z,3.50
2017-11-27T18:40:36.676Z,3.60
2017-11-27T18:43:04.786Z,3.60
2017-11-27T18:45:32.869Z,3.50
2017-11-27T18:48:00.977Z,3.60
2017-11-27T18:50:29.040Z,3.60
2017-11-27T18:52:57.887Z,3.60
2017-11-27T18:55:25.981Z,3.50
2017-11-27T18:57:54.056Z,3.50
2017-11-27T19:00:22.164Z,3.50
2017-11-27T19:02:50.245Z,3.50
2017-11-27T19:05:18.328Z,3.40
2017-11-27T19:07:46.407Z,3.40
2017-11-27T19:10:14.725Z,3.50
2017-11-27T19:12:42.797Z,3.40
2017-11-27T19:15:10.901Z,3.40
2017-11-27T19:17:38.968Z,3.40
2017-11-27T19:20:07.064Z,3.40
2017-11-27T19:22:35.141Z,3.40
2017-11-27T19:25:03.220Z,3.40
2017-11-27T19:27:31.305Z,3.40
2017-11-27T19:29:59.500Z,3.30
2017-11-27T19:32:28.357Z,3.40
2017-11-27T19:34:56.442Z,3.30
2017-11-27T19:37:24.522Z,3.40
2017-11-27T19:39:53.368Z,3.30
2017-11-27T19:42:21.484Z,3.30
2017-11-27T19:44:50.413Z,3.30
2017-11-27T19:47:18.515Z,3.30
2017-11-27T19:49:47.529Z,3.30
2017-11-27T19:52:16.462Z,3.30
2017-11-27T19:54:44.559Z,3.30
2017-11-27T19:57:12.640Z,3.20
2017-11-27T19:59:40.861Z,3.20
2017-11-27T20:02:09.057Z,3.20
2017-11-27T20:04:37.143Z,3.20
2017-11-27T20:07:05.289Z,3.20
2017-11-27T20:09:33.458Z,3.10
2017-11-27T20:12:01.565Z,3.10
2017-11-27T20:14:29.729Z,3.10
2017-11-27T20:16:58.069Z,3.10
2017-11-27T20:19:26.282Z,3.10
2017-11-27T20:21:54.692Z,3.10
2017-11-27T20:24:22.834Z,3.10
2017-11-27T20:26:51.029Z,3.10
2017-11-27T20:29:19.295Z,3.10
2017-11-27T20:31:47.405Z,3.10
2017-11-27T20:34:15.649Z,3.10
2017-11-27T20:36:44.108Z,3.10
2017-11-27T20:39:12.359Z,3.10
2017-11-27T20:41:40.477Z,3.10
2017-11-27T20:44:08.747Z,3.10
2017-11-27T20:46:37.024Z,3.10
2017-11-27T20:49:05.177Z,3.10
2017-11-27T20:51:33.522Z,3.10
2017-11-27T20:54:01.921Z,3.10
2017-11-27T20:56:30.182Z,3.00
2017-11-27T20:58:58.266Z,3.10
2017-11-27T21:01:26.357Z,3.00
2017-11-27T21:03:54.472Z,3.10
2017-11-27T21:06:22.551Z,3.10
2017-11-27T21:08:50.639Z,3.00
2017-11-27T21:11:18.730Z,3.10
2017-11-27T21:13:46.809Z,3.10
2017-11-27T21:16:15.073Z,3.00
2017-11-27T21:18:43.173Z,3.00
2017-11-27T21:21:12.008Z,3.10
2017-11-27T21:23:40.097Z,3.10
2017-11-27T21:26:08.181Z,3.10
2017-11-27T21:28:36.277Z,3.00
2017-11-27T21:31:05.143Z,3.00
2017-11-27T21:33:33.228Z,3.00
2017-11-27T21:36:02.094Z,3.00
2017-11-27T21:38:30.170Z,3.00
2017-11-27T21:40:58.254Z,3.10
2017-11-27T21:43:26.328Z,3.00
2017-11-27T21:45:55.179Z,3.00
2017-11-27T21:48:23.254Z,3.00
2017-11-27T21:50:51.344Z,3.00
2017-11-27T21:53:19.430Z,3.00
2017-11-27T21:55:48.299Z,3.10
2017-11-27T21:58:16.380Z,3.10
2017-11-27T22:00:44.468Z,3.00
2017-11-27T22:03:12.560Z,3.00
2017-11-27T22:05:40.817Z,3.10
2017-11-27T22:08:09.057Z,3.10
2017-11-27T22:10:37.913Z,3.10
2017-11-27T22:13:06.010Z,3.10
2017-11-27T22:15:34.176Z,3.10
2017-11-27T22:18:02.373Z,3.10
2017-11-27T22:20:30.478Z,3.10
2017-11-27T22:22:58.565Z,3.20
2017-11-27T22:25:26.648Z,3.10
2017-11-27T22:27:54.729Z,3.20
2017-11-27T22:30:22.817Z,3.10
2017-11-27T22:32:50.904Z,3.20
2017-11-27T22:35:18.973Z,3.20
2017-11-27T22:37:47.833Z,3.20
2017-11-27T22:40:15.911Z,3.20
2017-11-27T22:42:44.020Z,3.20
2017-11-27T22:45:12.089Z,3.20
2017-11-27T22:47:40.849Z,3.30
2017-11-27T22:50:08.920Z,3.30
2017-11-27T22:52:37.778Z,3.30
2017-11-27T22:55:05.858Z,3.30
2017-11-27T22:57:33.949Z,3.30
2017-11-27T23:00:02.025Z,3.30
2017-11-27T23:02:30.890Z,3.40
2017-11-27T23:04:58.970Z,3.30
2017-11-27T23:07:27.041Z,3.30
2017-11-27T23:09:55.133Z,3.30
2017-11-27T23:12:23.972Z,3.30
2017-11-27T23:14:52.054Z,3.30
2017-11-27T23:17:20.133Z,3.30
2017-11-27T23:19:48.243Z,3.30
2017-11-27T23:22:16.328Z,3.30
2017-11-27T23:24:44.594Z,3.30
2017-11-27T23:27:12.661Z,3.30
2017-11-27T23:29:40.850Z,3.30
2017-11-27T23:32:08.927Z,3.30
2017-11-27T23:34:37.009Z,3.30
2017-11-27T23:37:05.089Z,3.30
2017-11-27T23:39:33.172Z,3.30
2017-11-27T23:42:01.256Z,3.30
2017-11-27T23:44:29.333Z,3.30
2017-11-27T23:46:58.183Z,3.30
2017-11-27T23:49:26.264Z,3.30
2017-11-27T23:51:54.349Z,3.30
2017-11-27T23:54:22.429Z,3.20
2017-11-27T23:56:51.277Z,3.30
2017-11-27T23:59:19.360Z,3.20
